sensor_id;sensor_type;location;lat;lon;timestamp;pressure;altitude;pressure_sealevel;temperature;humidity
48636;BME280;34429;52.332;5.614;2022-10-16T00:01:29;100835.47;;;14.01;100.00
48636;BME280;34429;52.332;5.614;2022-10-16T00:03:58;100827.84;;;13.97;100.00
48636;BME280;34429;52.332;5.614;2022-10-16T00:06:28;100828.81;;;13.88;100.00
48636;BME280;34429;52.332;5.614;2022-10-16T00:08:57;100838.84;;;13.95;100.00
48636;BME280;34429;52.332;5.614;2022-10-16T00:11:30;100838.06;;;14.03;100.00
48636;BME280;34429;52.332;5.614;2022-10-16T00:14:01;100831.19;;;14.17;100.00
48636;BME280;34429;52.332;5.614;2022-10-16T00:16:29;100836.09;;;14.13;100.00
48636;BME280;34429;52.332;5.614;2022-10-16T00:18:58;100834.75;;;14.17;100.00
48636;BME280;34429;52.332;5.614;2022-10-16T00:21:29;100844.06;;;14.15;100.00
48636;BME280;34429;52.332;5.614;2022-10-16T00:23:58;100846.59;;;14.16;100.00
48636;BME280;34429;52.332;5.614;2022-10-16T00:26:32;100839.31;;;14.17;100.00
48636;BME280;34429;52.332;5.614;2022-10-16T00:29:01;100835.31;;;14.29;100.00
48636;BME280;34429;52.332;5.614;2022-10-16T00:31:29;100842.75;;;14.27;100.00
48636;BME280;34429;52.332;5.614;2022-10-16T00:33:58;100841.59;;;14.04;100.00
48636;BME280;34429;52.332;5.614;2022-10-16T00:36:27;100842.66;;;14.11;100.00
48636;BME280;34429;52.332;5.614;2022-10-16T00:38:57;100831.44;;;13.97;100.00
48636;BME280;34429;52.332;5.614;2022-10-16T00:41:26;100831.13;;;14.09;100.00
48636;BME280;34429;52.332;5.614;2022-10-16T00:44:00;100826.69;;;13.99;100.00
48636;BME280;34429;52.332;5.614;2022-10-16T00:46:38;100829.66;;;14.14;100.00
48636;BME280;34429;52.332;5.614;2022-10-16T00:49:09;100826.78;;;14.16;100.00
48636;BME280;34429;52.332;5.614;2022-10-16T00:51:40;100818.47;;;14.09;100.00
48636;BME280;34429;52.332;5.614;2022-10-16T00:54:10;100825.78;;;14.17;100.00
48636;BME280;34429;52.332;5.614;2022-10-16T00:56:40;100821.03;;;14.19;100.00
48636;BME280;34429;52.332;5.614;2022-10-16T00:59:15;100816.94;;;14.07;100.00
48636;BME280;34429;52.332;5.614;2022-10-16T01:01:44;100826.28;;;14.20;100.00
48636;BME280;34429;52.332;5.614;2022-10-16T01:04:13;100826.88;;;14.32;100.00
48636;BME280;34429;52.332;5.614;2022-10-16T01:06:47;100815.69;;;14.27;100.00
48636;BME280;34429;52.332;5.614;2022-10-16T01:09:23;100808.16;;;14.13;100.00
48636;BME280;34429;52.332;5.614;2022-10-16T01:11:58;100815.31;;;14.22;100.00
48636;BME280;34429;52.332;5.614;2022-10-16T01:14:40;100811.56;;;14.15;100.00
48636;BME280;34429;52.332;5.614;2022-10-16T01:17:12;100833.41;;;14.22;100.00
48636;BME280;34429;52.332;5.614;2022-10-16T01:20:02;100826.59;;;14.09;100.00
48636;BME280;34429;52.332;5.614;2022-10-16T01:22:39;100835.00;;;14.32;100.00
48636;BME280;34429;52.332;5.614;2022-10-16T01:25:12;100835.72;;;14.43;100.00
48636;BME280;34429;52.332;5.614;2022-10-16T01:27:47;100834.53;;;14.37;100.00
48636;BME280;34429;52.332;5.614;2022-10-16T01:30:20;100828.47;;;14.51;100.00
48636;BME280;34429;52.332;5.614;2022-10-16T01:32:52;100837.97;;;14.55;100.00
48636;BME280;34429;52.332;5.614;2022-10-16T01:35:24;100837.75;;;14.41;100.00
48636;BME280;34429;52.332;5.614;2022-10-16T01:37:58;100828.81;;;14.48;100.00
48636;BME280;34429;52.332;5.614;2022-10-16T01:40:29;100820.00;;;14.46;100.00
48636;BME280;34429;52.332;5.614;2022-10-16T01:43:08;100812.06;;;14.53;100.00
48636;BME280;34429;52.332;5.614;2022-10-16T01:45:40;100808.44;;;14.62;100.00
48636;BME280;34429;52.332;5.614;2022-10-16T01:48:12;100810.91;;;14.55;100.00
48636;BME280;34429;52.332;5.614;2022-10-16T01:50:43;100812.53;;;14.75;100.00
48636;BME280;34429;52.332;5.614;2022-10-16T01:53:13;100805.13;;;14.50;100.00
48636;BME280;34429;52.332;5.614;2022-10-16T01:55:45;100808.72;;;14.59;100.00
48636;BME280;34429;52.332;5.614;2022-10-16T01:58:18;100808.09;;;14.65;100.00
48636;BME280;34429;52.332;5.614;2022-10-16T02:00:47;100810.72;;;14.57;100.00
48636;BME280;34429;52.332;5.614;2022-10-16T02:03:17;100817.22;;;14.64;100.00
48636;BME280;34429;52.332;5.614;2022-10-16T02:05:47;100818.34;;;14.53;100.00
48636;BME280;34429;52.332;5.614;2022-10-16T02:08:17;100800.59;;;14.59;100.00
48636;BME280;34429;52.332;5.614;2022-10-16T02:10:45;100795.97;;;14.51;100.00
48636;BME280;34429;52.332;5.614;2022-10-16T02:13:21;100808.09;;;14.65;100.00
48636;BME280;34429;52.332;5.614;2022-10-16T02:15:51;100796.41;;;14.65;100.00
48636;BME280;34429;52.332;5.614;2022-10-16T02:18:19;100797.34;;;14.55;100.00
48636;BME280;34429;52.332;5.614;2022-10-16T02:20:51;100804.31;;;14.58;100.00
48636;BME280;34429;52.332;5.614;2022-10-16T02:23:24;100807.69;;;14.60;100.00
48636;BME280;34429;52.332;5.614;2022-10-16T02:25:58;100812.44;;;14.58;100.00
48636;BME280;34429;52.332;5.614;2022-10-16T02:28:35;100822.97;;;14.61;100.00
48636;BME280;34429;52.332;5.614;2022-10-16T02:31:09;100828.53;;;14.60;100.00
48636;BME280;34429;52.332;5.614;2022-10-16T02:33:40;100834.28;;;14.57;100.00
48636;BME280;34429;52.332;5.614;2022-10-16T02:36:10;100841.84;;;14.45;100.00
48636;BME280;34429;52.332;5.614;2022-10-16T02:38:39;100840.09;;;14.35;100.00
48636;BME280;34429;52.332;5.614;2022-10-16T02:41:08;100843.28;;;14.31;100.00
48636;BME280;34429;52.332;5.614;2022-10-16T02:43:39;100842.19;;;14.50;100.00
48636;BME280;34429;52.332;5.614;2022-10-16T02:46:08;100858.75;;;14.47;100.00
48636;BME280;34429;52.332;5.614;2022-10-16T02:48:36;100854.31;;;14.37;100.00
48636;BME280;34429;52.332;5.614;2022-10-16T02:51:04;100863.13;;;14.40;100.00
48636;BME280;34429;52.332;5.614;2022-10-16T02:53:33;100859.47;;;14.49;100.00
48636;BME280;34429;52.332;5.614;2022-10-16T02:56:01;100867.69;;;14.39;100.00
48636;BME280;34429;52.332;5.614;2022-10-16T02:58:29;100861.28;;;14.40;100.00
48636;BME280;34429;52.332;5.614;2022-10-16T03:01:00;100866.22;;;14.45;100.00
48636;BME280;34429;52.332;5.614;2022-10-16T03:03:29;100870.56;;;14.37;100.00
48636;BME280;34429;52.332;5.614;2022-10-16T03:05:57;100870.25;;;14.41;100.00
48636;BME280;34429;52.332;5.614;2022-10-16T03:08:25;100873.28;;;14.37;100.00
48636;BME280;34429;52.332;5.614;2022-10-16T03:10:54;100874.59;;;14.33;100.00
48636;BME280;34429;52.332;5.614;2022-10-16T03:13:23;100870.81;;;14.18;100.00
48636;BME280;34429;52.332;5.614;2022-10-16T03:15:51;100872.06;;;14.32;100.00
48636;BME280;34429;52.332;5.614;2022-10-16T03:18:22;100869.19;;;14.33;100.00
48636;BME280;34429;52.332;5.614;2022-10-16T03:20:50;100864.50;;;14.17;100.00
48636;BME280;34429;52.332;5.614;2022-10-16T03:23:19;100864.47;;;14.35;100.00
48636;BME280;34429;52.332;5.614;2022-10-16T03:25:47;100854.56;;;14.18;100.00
48636;BME280;34429;52.332;5.614;2022-10-16T03:28:15;100853.59;;;14.27;100.00
48636;BME280;34429;52.332;5.614;2022-10-16T03:30:44;100864.03;;;14.22;100.00
48636;BME280;34429;52.332;5.614;2022-10-16T03:33:12;100864.69;;;14.16;100.00
48636;BME280;34429;52.332;5.614;2022-10-16T03:35:43;100863.34;;;14.20;100.00
48636;BME280;34429;52.332;5.614;2022-10-16T03:38:18;100864.34;;;14.19;100.00
48636;BME280;34429;52.332;5.614;2022-10-16T03:40:47;100872.78;;;14.16;100.00
48636;BME280;34429;52.332;5.614;2022-10-16T03:43:15;100877.16;;;14.09;100.00
48636;BME280;34429;52.332;5.614;2022-10-16T03:45:43;100881.63;;;14.18;100.00
48636;BME280;34429;52.332;5.614;2022-10-16T03:48:12;100876.88;;;14.20;100.00
48636;BME280;34429;52.332;5.614;2022-10-16T03:50:42;100876.41;;;13.98;100.00
48636;BME280;34429;52.332;5.614;2022-10-16T03:53:11;100886.38;;;13.98;100.00
48636;BME280;34429;52.332;5.614;2022-10-16T03:55:41;100888.25;;;13.97;100.00
48636;BME280;34429;52.332;5.614;2022-10-16T03:58:09;100891.28;;;13.94;100.00
48636;BME280;34429;52.332;5.614;2022-10-16T04:00:40;100887.84;;;13.92;100.00
48636;BME280;34429;52.332;5.614;2022-10-16T04:03:09;100895.28;;;13.90;100.00
48636;BME280;34429;52.332;5.614;2022-10-16T04:05:37;100900.38;;;13.93;100.00
48636;BME280;34429;52.332;5.614;2022-10-16T04:08:08;100892.19;;;13.85;100.00
48636;BME280;34429;52.332;5.614;2022-10-16T04:10:37;100894.66;;;13.96;100.00
48636;BME280;34429;52.332;5.614;2022-10-16T04:13:05;100905.56;;;13.87;100.00
48636;BME280;34429;52.332;5.614;2022-10-16T04:15:33;100904.81;;;13.94;100.00
48636;BME280;34429;52.332;5.614;2022-10-16T04:18:02;100902.09;;;13.94;100.00
48636;BME280;34429;52.332;5.614;2022-10-16T04:20:30;100910.22;;;13.94;100.00
48636;BME280;34429;52.332;5.614;2022-10-16T04:22:58;100901.66;;;14.07;100.00
48636;BME280;34429;52.332;5.614;2022-10-16T04:25:30;100912.28;;;14.00;100.00
48636;BME280;34429;52.332;5.614;2022-10-16T04:27:58;100920.72;;;13.97;100.00
48636;BME280;34429;52.332;5.614;2022-10-16T04:30:27;100920.41;;;14.00;100.00
48636;BME280;34429;52.332;5.614;2022-10-16T04:32:55;100926.38;;;13.86;100.00
48636;BME280;34429;52.332;5.614;2022-10-16T04:35:23;100924.66;;;13.85;100.00
48636;BME280;34429;52.332;5.614;2022-10-16T04:37:51;100933.50;;;13.87;100.00
48636;BME280;34429;52.332;5.614;2022-10-16T04:40:20;100930.78;;;13.87;100.00
48636;BME280;34429;52.332;5.614;2022-10-16T04:42:51;100939.53;;;13.81;100.00
48636;BME280;34429;52.332;5.614;2022-10-16T04:45:19;100949.63;;;13.97;100.00
48636;BME280;34429;52.332;5.614;2022-10-16T04:47:47;100954.06;;;13.80;100.00
48636;BME280;34429;52.332;5.614;2022-10-16T04:50:16;100965.31;;;13.93;100.00
48636;BME280;34429;52.332;5.614;2022-10-16T04:52:44;100959.69;;;14.05;100.00
48636;BME280;34429;52.332;5.614;2022-10-16T04:55:12;100954.81;;;13.90;100.00
48636;BME280;34429;52.332;5.614;2022-10-16T04:57:41;100958.22;;;13.92;100.00
48636;BME280;34429;52.332;5.614;2022-10-16T05:00:13;100967.09;;;14.02;100.00
48636;BME280;34429;52.332;5.614;2022-10-16T05:02:41;100965.63;;;13.90;100.00
48636;BME280;34429;52.332;5.614;2022-10-16T05:05:10;100973.66;;;13.82;100.00
48636;BME280;34429;52.332;5.614;2022-10-16T05:07:39;100974.81;;;13.79;100.00
48636;BME280;34429;52.332;5.614;2022-10-16T05:10:11;100970.75;;;13.93;100.00
48636;BME280;34429;52.332;5.614;2022-10-16T05:12:39;100980.47;;;13.86;100.00
48636;BME280;34429;52.332;5.614;2022-10-16T05:15:09;100978.16;;;13.91;100.00
48636;BME280;34429;52.332;5.614;2022-10-16T05:17:39;100973.50;;;14.01;100.00
48636;BME280;34429;52.332;5.614;2022-10-16T05:20:08;100972.72;;;13.91;100.00
48636;BME280;34429;52.332;5.614;2022-10-16T05:22:36;100980.78;;;14.01;100.00
48636;BME280;34429;52.332;5.614;2022-10-16T05:25:05;100994.31;;;14.01;100.00
48636;BME280;34429;52.332;5.614;2022-10-16T05:27:34;100993.31;;;14.02;100.00
48636;BME280;34429;52.332;5.614;2022-10-16T05:30:03;100998.94;;;13.91;100.00
48636;BME280;34429;52.332;5.614;2022-10-16T05:32:31;101001.59;;;14.00;100.00
48636;BME280;34429;52.332;5.614;2022-10-16T05:35:02;101002.44;;;14.01;100.00
48636;BME280;34429;52.332;5.614;2022-10-16T05:37:31;101004.75;;;13.96;100.00
48636;BME280;34429;52.332;5.614;2022-10-16T05:39:59;101014.50;;;13.89;100.00
48636;BME280;34429;52.332;5.614;2022-10-16T05:42:30;101016.28;;;13.80;100.00
48636;BME280;34429;52.332;5.614;2022-10-16T05:44:58;101020.38;;;13.84;100.00
48636;BME280;34429;52.332;5.614;2022-10-16T05:47:27;101021.84;;;13.96;100.00
48636;BME280;34429;52.332;5.614;2022-10-16T05:49:55;101022.47;;;13.90;100.00
48636;BME280;34429;52.332;5.614;2022-10-16T05:52:26;101036.16;;;13.89;100.00
48636;BME280;34429;52.332;5.614;2022-10-16T05:54:54;101041.41;;;13.90;100.00
48636;BME280;34429;52.332;5.614;2022-10-16T05:57:22;101041.09;;;13.93;100.00
48636;BME280;34429;52.332;5.614;2022-10-16T05:59:51;101039.38;;;13.92;100.00
48636;BME280;34429;52.332;5.614;2022-10-16T06:02:19;101050.34;;;14.09;100.00
48636;BME280;34429;52.332;5.614;2022-10-16T06:04:47;101050.06;;;14.12;100.00
48636;BME280;34429;52.332;5.614;2022-10-16T06:07:16;101052.84;;;14.02;100.00
48636;BME280;34429;52.332;5.614;2022-10-16T06:09:48;101055.78;;;14.09;100.00
48636;BME280;34429;52.332;5.614;2022-10-16T06:12:16;101058.34;;;14.28;100.00
48636;BME280;34429;52.332;5.614;2022-10-16T06:14:45;101070.63;;;14.23;100.00
48636;BME280;34429;52.332;5.614;2022-10-16T06:17:14;101070.81;;;14.21;100.00
48636;BME280;34429;52.332;5.614;2022-10-16T06:19:48;101082.31;;;14.23;100.00
48636;BME280;34429;52.332;5.614;2022-10-16T06:22:17;101091.16;;;14.25;100.00
48636;BME280;34429;52.332;5.614;2022-10-16T06:24:48;101094.13;;;14.22;100.00
48636;BME280;34429;52.332;5.614;2022-10-16T06:27:16;101095.69;;;14.07;100.00
48636;BME280;34429;52.332;5.614;2022-10-16T06:29:45;101105.59;;;14.16;100.00
48636;BME280;34429;52.332;5.614;2022-10-16T06:32:13;101095.44;;;14.00;100.00
48636;BME280;34429;52.332;5.614;2022-10-16T06:34:41;101108.59;;;14.13;100.00
48636;BME280;34429;52.332;5.614;2022-10-16T06:37:09;101127.81;;;14.19;100.00
48636;BME280;34429;52.332;5.614;2022-10-16T06:39:38;101116.28;;;13.90;100.00
48636;BME280;34429;52.332;5.614;2022-10-16T06:42:08;101120.16;;;14.15;100.00
48636;BME280;34429;52.332;5.614;2022-10-16T06:44:37;101118.81;;;14.19;100.00
48636;BME280;34429;52.332;5.614;2022-10-16T06:47:05;101124.97;;;13.93;100.00
48636;BME280;34429;52.332;5.614;2022-10-16T06:49:33;101120.50;;;14.02;100.00
48636;BME280;34429;52.332;5.614;2022-10-16T06:52:02;101103.28;;;14.03;100.00
48636;BME280;34429;52.332;5.614;2022-10-16T06:54:30;101114.72;;;14.15;100.00
48636;BME280;34429;52.332;5.614;2022-10-16T06:56:59;101114.63;;;14.07;100.00
48636;BME280;34429;52.332;5.614;2022-10-16T06:59:30;101120.19;;;14.05;100.00
48636;BME280;34429;52.332;5.614;2022-10-16T07:01:58;101125.13;;;13.92;100.00
48636;BME280;34429;52.332;5.614;2022-10-16T07:04:26;101118.78;;;14.01;100.00
48636;BME280;34429;52.332;5.614;2022-10-16T07:06:55;101127.56;;;14.13;100.00
48636;BME280;34429;52.332;5.614;2022-10-16T07:09:23;101132.34;;;14.19;100.00
48636;BME280;34429;52.332;5.614;2022-10-16T07:11:52;101131.41;;;14.10;100.00
48636;BME280;34429;52.332;5.614;2022-10-16T07:14:21;101143.09;;;14.11;100.00
48636;BME280;34429;52.332;5.614;2022-10-16T07:16:52;101148.72;;;13.99;100.00
48636;BME280;34429;52.332;5.614;2022-10-16T07:19:21;101150.66;;;14.07;100.00
48636;BME280;34429;52.332;5.614;2022-10-16T07:21:50;101144.72;;;14.04;100.00
48636;BME280;34429;52.332;5.614;2022-10-16T07:24:18;101151.22;;;14.11;100.00
48636;BME280;34429;52.332;5.614;2022-10-16T07:26:47;101159.66;;;14.08;100.00
48636;BME280;34429;52.332;5.614;2022-10-16T07:29:18;101161.75;;;14.14;100.00
48636;BME280;34429;52.332;5.614;2022-10-16T07:31:48;101173.72;;;14.11;100.00
48636;BME280;34429;52.332;5.614;2022-10-16T07:34:19;101177.19;;;14.04;100.00
48636;BME280;34429;52.332;5.614;2022-10-16T07:36:48;101184.59;;;14.01;100.00
48636;BME280;34429;52.332;5.614;2022-10-16T07:39:23;101188.63;;;13.97;100.00
48636;BME280;34429;52.332;5.614;2022-10-16T07:41:51;101186.78;;;14.16;100.00
48636;BME280;34429;52.332;5.614;2022-10-16T07:44:20;101192.69;;;14.29;100.00
48636;BME280;34429;52.332;5.614;2022-10-16T07:46:48;101193.38;;;14.13;100.00
48636;BME280;34429;52.332;5.614;2022-10-16T07:49:19;101194.50;;;14.39;100.00
48636;BME280;34429;52.332;5.614;2022-10-16T07:51:47;101200.75;;;14.21;100.00
48636;BME280;34429;52.332;5.614;2022-10-16T07:54:15;101212.53;;;14.30;100.00
48636;BME280;34429;52.332;5.614;2022-10-16T07:56:44;101214.72;;;14.44;100.00
48636;BME280;34429;52.332;5.614;2022-10-16T07:59:12;101217.69;;;14.41;100.00
48636;BME280;34429;52.332;5.614;2022-10-16T08:01:40;101220.94;;;14.27;100.00
48636;BME280;34429;52.332;5.614;2022-10-16T08:04:10;101221.03;;;14.35;100.00
48636;BME280;34429;52.332;5.614;2022-10-16T08:06:41;101224.03;;;14.32;100.00
48636;BME280;34429;52.332;5.614;2022-10-16T08:09:09;101236.22;;;14.46;100.00
48636;BME280;34429;52.332;5.614;2022-10-16T08:11:37;101233.78;;;14.43;100.00
48636;BME280;34429;52.332;5.614;2022-10-16T08:14:06;101234.44;;;14.54;100.00
48636;BME280;34429;52.332;5.614;2022-10-16T08:16:34;101243.59;;;14.53;100.00
48636;BME280;34429;52.332;5.614;2022-10-16T08:19:02;101239.34;;;14.69;100.00
48636;BME280;34429;52.332;5.614;2022-10-16T08:21:31;101253.78;;;14.69;100.00
48636;BME280;34429;52.332;5.614;2022-10-16T08:24:02;101249.13;;;14.80;100.00
48636;BME280;34429;52.332;5.614;2022-10-16T08:26:30;101242.94;;;14.69;100.00
48636;BME280;34429;52.332;5.614;2022-10-16T08:28:58;101248.97;;;14.81;100.00
48636;BME280;34429;52.332;5.614;2022-10-16T08:31:27;101265.00;;;15.11;100.00
48636;BME280;34429;52.332;5.614;2022-10-16T08:33:55;101258.50;;;15.03;100.00
48636;BME280;34429;52.332;5.614;2022-10-16T08:36:23;101263.06;;;14.85;100.00
48636;BME280;34429;52.332;5.614;2022-10-16T08:38:52;101273.53;;;14.98;100.00
48636;BME280;34429;52.332;5.614;2022-10-16T08:42:01;101275.75;;;15.02;100.00
48636;BME280;34429;52.332;5.614;2022-10-16T08:47:38;101278.31;;;15.22;100.00
48636;BME280;34429;52.332;5.614;2022-10-16T08:50:13;101281.97;;;15.13;100.00
48636;BME280;34429;52.332;5.614;2022-10-16T08:52:43;101289.72;;;15.26;100.00
48636;BME280;34429;52.332;5.614;2022-10-16T08:55:30;101291.03;;;15.66;100.00
48636;BME280;34429;52.332;5.614;2022-10-16T08:58:11;101301.66;;;15.59;100.00
48636;BME280;34429;52.332;5.614;2022-10-16T09:00:41;101301.28;;;15.54;100.00
48636;BME280;34429;52.332;5.614;2022-10-16T09:03:17;101294.75;;;15.83;100.00
48636;BME280;34429;52.332;5.614;2022-10-16T09:05:52;101303.50;;;16.03;100.00
48636;BME280;34429;52.332;5.614;2022-10-16T09:08:29;101303.47;;;15.76;100.00
48636;BME280;34429;52.332;5.614;2022-10-16T09:11:05;101313.31;;;15.77;100.00
48636;BME280;34429;52.332;5.614;2022-10-16T09:13:45;101315.16;;;15.95;100.00
48636;BME280;34429;52.332;5.614;2022-10-16T09:16:19;101323.16;;;16.31;100.00
48636;BME280;34429;52.332;5.614;2022-10-16T09:18:54;101326.50;;;16.17;100.00
48636;BME280;34429;52.332;5.614;2022-10-16T09:21:26;101336.63;;;16.06;100.00
48636;BME280;34429;52.332;5.614;2022-10-16T09:23:58;101332.94;;;16.16;100.00
48636;BME280;34429;52.332;5.614;2022-10-16T09:26:27;101339.44;;;16.23;100.00
48636;BME280;34429;52.332;5.614;2022-10-16T09:28:58;101349.06;;;16.17;100.00
48636;BME280;34429;52.332;5.614;2022-10-16T09:31:26;101350.59;;;16.46;100.00
48636;BME280;34429;52.332;5.614;2022-10-16T09:33:58;101351.53;;;16.37;100.00
48636;BME280;34429;52.332;5.614;2022-10-16T09:36:36;101354.66;;;16.16;100.00
48636;BME280;34429;52.332;5.614;2022-10-16T09:39:09;101350.22;;;16.15;100.00
48636;BME280;34429;52.332;5.614;2022-10-16T09:41:40;101346.94;;;16.29;100.00
48636;BME280;34429;52.332;5.614;2022-10-16T09:44:20;101359.50;;;16.30;100.00
48636;BME280;34429;52.332;5.614;2022-10-16T09:46:49;101357.72;;;16.21;100.00
48636;BME280;34429;52.332;5.614;2022-10-16T09:49:28;101363.22;;;16.29;100.00
48636;BME280;34429;52.332;5.614;2022-10-16T09:52:03;101360.06;;;16.42;100.00
48636;BME280;34429;52.332;5.614;2022-10-16T09:54:31;101366.75;;;16.56;100.00
48636;BME280;34429;52.332;5.614;2022-10-16T09:57:06;101370.03;;;16.68;100.00
48636;BME280;34429;52.332;5.614;2022-10-16T09:59:46;101367.00;;;16.79;100.00
48636;BME280;34429;52.332;5.614;2022-10-16T10:02:16;101353.00;;;17.00;100.00
48636;BME280;34429;52.332;5.614;2022-10-16T10:04:50;101361.84;;;17.10;100.00
48636;BME280;34429;52.332;5.614;2022-10-16T10:07:24;101369.03;;;17.20;100.00
48636;BME280;34429;52.332;5.614;2022-10-16T10:09:57;101380.56;;;17.13;100.00
48636;BME280;34429;52.332;5.614;2022-10-16T10:12:27;101381.56;;;17.04;100.00
48636;BME280;34429;52.332;5.614;2022-10-16T10:15:05;101375.00;;;16.80;100.00
48636;BME280;34429;52.332;5.614;2022-10-16T10:17:45;101373.84;;;16.83;100.00
48636;BME280;34429;52.332;5.614;2022-10-16T10:20:22;101386.22;;;16.86;100.00
48636;BME280;34429;52.332;5.614;2022-10-16T10:22:51;101381.22;;;17.07;100.00
48636;BME280;34429;52.332;5.614;2022-10-16T10:25:37;101395.66;;;16.99;100.00
48636;BME280;34429;52.332;5.614;2022-10-16T10:28:21;101386.13;;;16.87;100.00
48636;BME280;34429;52.332;5.614;2022-10-16T10:31:02;101392.16;;;16.81;100.00
48636;BME280;34429;52.332;5.614;2022-10-16T10:33:38;101391.22;;;16.98;100.00
48636;BME280;34429;52.332;5.614;2022-10-16T10:36:25;101407.41;;;17.16;100.00
48636;BME280;34429;52.332;5.614;2022-10-16T10:38:58;101400.47;;;17.22;100.00
48636;BME280;34429;52.332;5.614;2022-10-16T10:41:48;101411.19;;;17.15;100.00
48636;BME280;34429;52.332;5.614;2022-10-16T10:44:30;101418.38;;;17.58;100.00
48636;BME280;34429;52.332;5.614;2022-10-16T10:47:17;101413.28;;;17.63;100.00
48636;BME280;34429;52.332;5.614;2022-10-16T10:49:56;101408.84;;;17.45;100.00
48636;BME280;34429;52.332;5.614;2022-10-16T10:52:38;101410.91;;;17.43;100.00
48636;BME280;34429;52.332;5.614;2022-10-16T10:55:19;101411.72;;;17.36;100.00
48636;BME280;34429;52.332;5.614;2022-10-16T10:58:16;101420.00;;;17.17;100.00
48636;BME280;34429;52.332;5.614;2022-10-16T11:00:53;101414.28;;;17.37;100.00
48636;BME280;34429;52.332;5.614;2022-10-16T11:03:42;101417.38;;;17.50;100.00
48636;BME280;34429;52.332;5.614;2022-10-16T11:06:13;101422.47;;;17.54;100.00
48636;BME280;34429;52.332;5.614;2022-10-16T11:08:45;101413.44;;;17.53;100.00
48636;BME280;34429;52.332;5.614;2022-10-16T11:11:22;101415.66;;;17.41;100.00
48636;BME280;34429;52.332;5.614;2022-10-16T11:13:55;101424.50;;;17.51;100.00
48636;BME280;34429;52.332;5.614;2022-10-16T11:16:28;101432.06;;;17.91;100.00
48636;BME280;34429;52.332;5.614;2022-10-16T11:19:10;101435.09;;;17.88;100.00
48636;BME280;34429;52.332;5.614;2022-10-16T11:21:44;101436.94;;;17.87;100.00
48636;BME280;34429;52.332;5.614;2022-10-16T11:24:20;101435.97;;;17.96;100.00
48636;BME280;34429;52.332;5.614;2022-10-16T11:26:54;101437.59;;;18.47;100.00
48636;BME280;34429;52.332;5.614;2022-10-16T11:29:26;101443.78;;;18.24;100.00
48636;BME280;34429;52.332;5.614;2022-10-16T11:31:59;101445.81;;;18.22;100.00
48636;BME280;34429;52.332;5.614;2022-10-16T11:34:37;101446.31;;;18.42;100.00
48636;BME280;34429;52.332;5.614;2022-10-16T11:37:12;101440.75;;;18.75;100.00
48636;BME280;34429;52.332;5.614;2022-10-16T11:39:44;101448.25;;;18.73;100.00
48636;BME280;34429;52.332;5.614;2022-10-16T11:42:17;101447.63;;;18.54;100.00
48636;BME280;34429;52.332;5.614;2022-10-16T11:44:54;101446.31;;;18.42;100.00
48636;BME280;34429;52.332;5.614;2022-10-16T11:47:34;101447.09;;;18.59;100.00
48636;BME280;34429;52.332;5.614;2022-10-16T11:50:17;101454.16;;;18.20;100.00
48636;BME280;34429;52.332;5.614;2022-10-16T11:52:53;101455.34;;;18.34;100.00
48636;BME280;34429;52.332;5.614;2022-10-16T11:55:27;101446.50;;;17.83;100.00
48636;BME280;34429;52.332;5.614;2022-10-16T11:58:01;101458.41;;;17.90;100.00
48636;BME280;34429;52.332;5.614;2022-10-16T12:00:38;101462.00;;;17.99;100.00
48636;BME280;34429;52.332;5.614;2022-10-16T12:03:15;101467.28;;;18.09;100.00
48636;BME280;34429;52.332;5.614;2022-10-16T12:06:13;101465.06;;;18.12;100.00
48636;BME280;34429;52.332;5.614;2022-10-16T12:08:47;101475.59;;;18.40;100.00
48636;BME280;34429;52.332;5.614;2022-10-16T12:11:33;101471.81;;;18.58;100.00
48636;BME280;34429;52.332;5.614;2022-10-16T12:14:07;101477.16;;;18.34;100.00
48636;BME280;34429;52.332;5.614;2022-10-16T12:16:53;101470.50;;;18.29;100.00
48636;BME280;34429;52.332;5.614;2022-10-16T12:19:24;101473.56;;;18.42;100.00
48636;BME280;34429;52.332;5.614;2022-10-16T12:21:56;101473.56;;;18.42;100.00
48636;BME280;34429;52.332;5.614;2022-10-16T12:24:33;101473.28;;;18.85;100.00
48636;BME280;34429;52.332;5.614;2022-10-16T12:27:04;101486.44;;;18.73;100.00
48636;BME280;34429;52.332;5.614;2022-10-16T12:29:36;101486.13;;;18.60;100.00
48636;BME280;34429;52.332;5.614;2022-10-16T12:32:21;101482.66;;;18.82;100.00
48636;BME280;34429;52.332;5.614;2022-10-16T12:34:52;101481.38;;;18.45;100.00
48636;BME280;34429;52.332;5.614;2022-10-16T12:37:25;101486.44;;;18.73;100.00
48636;BME280;34429;52.332;5.614;2022-10-16T12:39:55;101489.19;;;18.65;100.00
48636;BME280;34429;52.332;5.614;2022-10-16T12:42:33;101490.56;;;18.52;100.00
48636;BME280;34429;52.332;5.614;2022-10-16T12:45:21;101502.16;;;18.54;100.00
48636;BME280;34429;52.332;5.614;2022-10-16T12:47:53;101504.22;;;18.44;100.00
48636;BME280;34429;52.332;5.614;2022-10-16T12:50:31;101504.22;;;18.28;100.00
48636;BME280;34429;52.332;5.614;2022-10-16T12:53:04;101497.06;;;18.27;100.00
48636;BME280;34429;52.332;5.614;2022-10-16T12:55:52;101507.81;;;18.36;100.00
48636;BME280;34429;52.332;5.614;2022-10-16T12:58:35;101503.16;;;18.53;100.00
48636;BME280;34429;52.332;5.614;2022-10-16T13:01:12;101502.50;;;18.60;100.00
48636;BME280;34429;52.332;5.614;2022-10-16T13:04:13;101508.31;;;18.24;100.00
48636;BME280;34429;52.332;5.614;2022-10-16T13:06:51;101503.72;;;18.16;100.00
48636;BME280;34429;52.332;5.614;2022-10-16T13:09:35;101506.22;;;17.84;100.00